createdAt,value
2023-03-06T00:01:40.394Z,76.54
2023-03-06T00:04:08.387Z,76.82
2023-03-06T00:06:34.887Z,76.94
2023-03-06T00:09:01.360Z,77.23
2023-03-06T00:11:27.794Z,77.19
2023-03-06T00:13:54.242Z,77.15
2023-03-06T00:16:20.714Z,77.38
2023-03-06T00:18:47.764Z,76.26
2023-03-06T00:21:14.210Z,76.99
2023-03-06T00:23:41.316Z,77.34
2023-03-06T00:26:08.873Z,77.32
2023-03-06T00:28:35.781Z,77.07
2023-03-06T00:31:03.179Z,77.22
2023-03-06T00:33:30.129Z,77.08
2023-03-06T00:35:56.686Z,78.04
2023-03-06T00:38:23.219Z,77.62
2023-03-06T00:40:49.736Z,77.80
2023-03-06T00:43:16.187Z,77.66
2023-03-06T00:45:42.655Z,77.65
2023-03-06T00:48:09.205Z,77.29
2023-03-06T00:50:36.236Z,77.35
2023-03-06T00:53:02.674Z,78.06
2023-03-06T00:55:30.808Z,77.61
2023-03-06T00:57:57.266Z,78.45
2023-03-06T01:00:24.353Z,78.22
2023-03-06T01:02:50.868Z,78.24
2023-03-06T01:05:17.345Z,78.17
2023-03-06T01:07:43.894Z,78.85
2023-03-06T01:10:11.220Z,78.70
2023-03-06T01:12:37.704Z,79.13
2023-03-06T01:15:05.387Z,78.42
2023-03-06T01:17:31.859Z,79.14
2023-03-06T01:19:58.654Z,79.11
2023-03-06T01:22:25.179Z,80.09
2023-03-06T01:24:51.603Z,80.62
2023-03-06T01:27:18.159Z,80.78
2023-03-06T01:29:44.621Z,80.65
2023-03-06T01:32:11.115Z,80.69
2023-03-06T01:34:37.595Z,80.62
2023-03-06T01:37:04.066Z,80.94
2023-03-06T01:39:31.553Z,80.53
2023-03-06T01:41:58.085Z,80.68
2023-03-06T01:44:24.607Z,80.97
2023-03-06T01:46:51.096Z,80.77
2023-03-06T01:49:25.056Z,80.65
2023-03-06T01:52:07.012Z,80.71
2023-03-06T01:54:37.238Z,81.03
2023-03-06T01:57:07.633Z,81.11
2023-03-06T01:59:35.275Z,80.64
2023-03-06T02:02:02.726Z,80.48
2023-03-06T02:04:29.927Z,80.58
2023-03-06T02:06:59.268Z,81.38
2023-03-06T02:09:29.910Z,80.54
2023-03-06T02:11:56.340Z,81.38
2023-03-06T02:14:23.155Z,81.43
2023-03-06T02:16:49.648Z,81.08
2023-03-06T02:19:33.540Z,81.60
2023-03-06T02:22:00.161Z,82.09
2023-03-06T02:24:39.000Z,81.74
2023-03-06T02:27:06.938Z,81.44
2023-03-06T02:29:33.660Z,81.64
2023-03-06T02:32:00.200Z,81.59
2023-03-06T02:34:26.612Z,81.06
2023-03-06T02:37:00.898Z,81.19
2023-03-06T02:39:30.043Z,81.77
2023-03-06T02:41:56.581Z,81.36
2023-03-06T02:44:23.931Z,82.11
2023-03-06T02:46:50.401Z,82.77
2023-03-06T02:49:16.839Z,82.70
2023-03-06T02:51:43.265Z,82.63
2023-03-06T02:54:11.006Z,83.06
2023-03-06T02:56:37.484Z,82.83
2023-03-06T02:59:03.935Z,82.89
2023-03-06T03:01:30.806Z,82.41
2023-03-06T03:03:57.294Z,82.63
2023-03-06T03:06:23.802Z,82.58
2023-03-06T03:08:50.244Z,82.13
2023-03-06T03:11:16.682Z,82.06
2023-03-06T03:13:43.235Z,82.31
2023-03-06T03:16:13.982Z,82.89
2023-03-06T03:18:47.961Z,81.80
2023-03-06T03:21:14.978Z,82.49
2023-03-06T03:23:41.569Z,82.47
2023-03-06T03:26:10.597Z,82.59
2023-03-06T03:28:37.424Z,82.36
2023-03-06T03:31:05.289Z,83.33
2023-03-06T03:33:32.422Z,82.82
2023-03-06T03:36:00.218Z,82.65
2023-03-06T03:38:26.999Z,82.83
2023-03-06T03:40:53.538Z,83.05
2023-03-06T03:43:19.993Z,83.35
2023-03-06T03:45:46.398Z,83.24
2023-03-06T03:48:12.885Z,83.37
2023-03-06T03:50:39.329Z,83.04
2023-03-06T03:53:05.878Z,83.62
2023-03-06T03:55:32.355Z,83.47
2023-03-06T03:57:58.847Z,83.90
2023-03-06T04:00:25.311Z,83.71
2023-03-06T04:02:51.759Z,83.53
2023-03-06T04:05:18.445Z,84.26
2023-03-06T04:07:44.914Z,84.86
2023-03-06T04:10:12.553Z,84.42
2023-03-06T04:12:39.278Z,84.14
2023-03-06T04:15:07.663Z,83.46
2023-03-06T04:17:34.969Z,84.08
2023-03-06T04:20:02.642Z,83.63
2023-03-06T04:22:29.219Z,84.37
2023-03-06T04:24:55.691Z,84.17
2023-03-06T04:27:22.165Z,83.77
2023-03-06T04:29:48.761Z,83.35
2023-03-06T04:32:15.417Z,84.20
2023-03-06T04:34:42.135Z,83.82
2023-03-06T04:37:18.372Z,84.47
2023-03-06T04:39:44.849Z,84.92
2023-03-06T04:42:11.548Z,84.63
2023-03-06T04:44:38.080Z,83.78
2023-03-06T04:47:04.791Z,84.25
2023-03-06T04:49:31.304Z,85.06
2023-03-06T04:51:57.981Z,85.66
2023-03-06T04:54:24.528Z,85.44
2023-03-06T04:56:50.932Z,86.06
2023-03-06T04:59:17.392Z,85.37
2023-03-06T05:01:43.840Z,85.53
2023-03-06T05:04:10.312Z,85.86
2023-03-06T05:06:36.748Z,85.65
2023-03-06T05:09:03.284Z,85.36
2023-03-06T05:11:29.786Z,86.06
2023-03-06T05:13:56.226Z,85.15
2023-03-06T05:16:22.692Z,85.87
2023-03-06T05:18:50.668Z,85.64
2023-03-06T05:21:17.362Z,86.67
2023-03-06T05:23:43.877Z,87.21
2023-03-06T05:26:12.110Z,87.00
2023-03-06T05:28:38.780Z,86.48
2023-03-06T05:31:05.693Z,87.06
2023-03-06T05:33:33.540Z,87.59
2023-03-06T05:36:00.049Z,86.56
2023-03-06T05:38:26.868Z,86.84
2023-03-06T05:40:53.438Z,86.39
2023-03-06T05:43:20.063Z,86.39
2023-03-06T05:45:46.541Z,86.38
2023-03-06T05:48:13.722Z,86.05
2023-03-06T05:50:40.328Z,85.54
2023-03-06T05:53:07.934Z,86.08
2023-03-06T05:55:34.377Z,85.87
2023-03-06T05:58:00.790Z,86.30
2023-03-06T06:00:27.313Z,87.07
2023-03-06T06:02:54.279Z,86.94
2023-03-06T06:05:20.807Z,87.08
2023-03-06T06:07:47.438Z,87.00
2023-03-06T06:10:14.098Z,86.92
2023-03-06T06:12:43.141Z,87.28
2023-03-06T06:15:10.024Z,86.97
2023-03-06T06:17:36.486Z,87.96
2023-03-06T06:20:03.483Z,87.73
2023-03-06T06:22:30.001Z,88.22
2023-03-06T06:24:56.459Z,88.22
2023-03-06T06:27:22.928Z,87.89
2023-03-06T06:29:52.724Z,86.91
2023-03-06T06:32:19.572Z,86.70
2023-03-06T06:34:46.029Z,87.74
2023-03-06T06:37:12.534Z,87.73
2023-03-06T06:39:38.994Z,87.52
2023-03-06T06:42:26.555Z,87.54
2023-03-06T06:44:52.549Z,88.34
2023-03-06T06:47:22.732Z,87.53
2023-03-06T06:49:52.714Z,87.23
2023-03-06T06:52:19.402Z,87.56
2023-03-06T06:54:45.937Z,88.36
2023-03-06T06:57:13.250Z,88.19
2023-03-06T06:59:39.716Z,87.67
2023-03-06T07:02:06.318Z,88.21
2023-03-06T07:04:33.024Z,88.42
2023-03-06T07:06:59.891Z,88.30
2023-03-06T07:09:26.555Z,88.73
2023-03-06T07:11:53.115Z,88.38
2023-03-06T07:14:19.573Z,88.96
2023-03-06T07:16:46.024Z,89.74
2023-03-06T07:19:12.483Z,90.00
2023-03-06T07:21:38.941Z,90.51
2023-03-06T07:24:05.622Z,90.41
2023-03-06T07:26:34.511Z,91.12
2023-03-06T07:29:02.272Z,91.75
2023-03-06T07:31:29.014Z,91.87
2023-03-06T07:33:56.008Z,92.01
2023-03-06T07:36:23.525Z,91.84
2023-03-06T07:38:50.269Z,93.45
2023-03-06T07:41:20.390Z,93.72
2023-03-06T07:43:48.664Z,93.26
2023-03-06T07:46:15.268Z,94.04
2023-03-06T07:48:42.411Z,94.66
2023-03-06T07:51:15.602Z,94.47
2023-03-06T07:53:42.295Z,94.60
2023-03-06T07:56:09.471Z,94.28
2023-03-06T07:58:37.672Z,94.58
2023-03-06T08:01:06.603Z,95.80
2023-03-06T08:03:33.733Z,96.08
2023-03-06T08:06:12.087Z,94.20
2023-03-06T08:08:40.209Z,95.46
2023-03-06T08:11:08.076Z,96.54
2023-03-06T08:13:35.255Z,96.61
2023-03-06T08:16:02.285Z,96.19
2023-03-06T08:18:28.926Z,94.46
2023-03-06T08:21:06.395Z,95.77
2023-03-06T08:23:33.803Z,94.93
2023-03-06T08:26:01.949Z,94.98
2023-03-06T08:28:28.888Z,93.98
2023-03-06T08:30:56.117Z,94.53
2023-03-06T08:33:23.129Z,94.98
2023-03-06T08:35:49.821Z,94.39
2023-03-06T08:38:16.398Z,94.07
2023-03-06T08:40:42.859Z,94.85
2023-03-06T08:43:11.825Z,93.54
2023-03-06T08:45:40.280Z,94.12
2023-03-06T08:48:06.745Z,94.70
2023-03-06T08:50:33.287Z,95.86
2023-03-06T08:52:59.865Z,95.37
2023-03-06T08:55:28.054Z,97.84
2023-03-06T08:57:54.581Z,97.68
2023-03-06T09:00:21.165Z,96.40
2023-03-06T09:02:47.597Z,97.73
2023-03-06T09:05:14.128Z,98.20
2023-03-06T09:07:40.585Z,97.37
2023-03-06T09:10:08.388Z,99.00
2023-03-06T09:12:47.476Z,99.09
2023-03-06T09:15:16.306Z,98.33
2023-03-06T09:17:43.113Z,99.87
2023-03-06T09:20:12.468Z,100.00
2023-03-06T09:22:38.950Z,99.72
2023-03-06T09:25:06.282Z,100.00
2023-03-06T09:27:33.099Z,100.00
2023-03-06T09:29:59.578Z,100.00
2023-03-06T09:32:26.166Z,100.00
2023-03-06T09:34:52.663Z,100.00
2023-03-06T09:37:19.190Z,100.00
2023-03-06T09:39:45.729Z,100.00
2023-03-06T09:42:23.665Z,100.00
2023-03-06T09:44:55.657Z,100.00
2023-03-06T09:47:28.644Z,100.00
2023-03-06T09:49:58.283Z,100.00
2023-03-06T09:53:02.700Z,100.00
2023-03-06T09:55:31.619Z,100.00
2023-03-06T09:58:09.087Z,100.00
2023-03-06T10:00:39.977Z,100.00
2023-03-06T10:03:45.373Z,100.00
2023-03-06T10:06:18.369Z,100.00
2023-03-06T10:09:15.508Z,100.00
2023-03-06T10:11:43.584Z,100.00
2023-03-06T10:14:38.246Z,100.00
2023-03-06T10:17:06.153Z,100.00
2023-03-06T10:19:37.892Z,100.00
2023-03-06T10:22:06.828Z,100.00
2023-03-06T10:24:47.887Z,100.00
2023-03-06T10:27:34.842Z,100.00
2023-03-06T10:30:13.831Z,100.00
2023-03-06T10:32:52.409Z,100.00
2023-03-06T10:35:22.467Z,100.00
2023-03-06T10:37:49.273Z,100.00
2023-03-06T10:40:21.696Z,100.00
2023-03-06T10:42:49.538Z,100.00
2023-03-06T10:45:18.731Z,100.00
2023-03-06T10:47:46.126Z,100.00
2023-03-06T10:50:22.547Z,100.00
2023-03-06T10:53:10.544Z,100.00
2023-03-06T10:55:37.786Z,100.00
2023-03-06T10:58:19.354Z,100.00
2023-03-06T11:00:46.092Z,100.00
2023-03-06T11:03:21.216Z,100.00
2023-03-06T11:06:01.479Z,100.00
2023-03-06T11:08:29.226Z,100.00
2023-03-06T11:11:03.275Z,100.00
2023-03-06T11:13:32.936Z,100.00
2023-03-06T11:16:23.805Z,100.00
2023-03-06T11:18:56.097Z,100.00
2023-03-06T11:21:33.637Z,100.00
2023-03-06T11:24:19.390Z,100.00
2023-03-06T11:26:51.132Z,100.00
2023-03-06T11:29:33.783Z,100.00
2023-03-06T11:32:11.181Z,100.00
2023-03-06T11:34:50.946Z,100.00
2023-03-06T11:37:37.548Z,100.00
2023-03-06T11:40:10.505Z,100.00
2023-03-06T11:42:49.182Z,100.00
2023-03-06T11:45:26.658Z,100.00
2023-03-06T11:48:01.581Z,100.00
2023-03-06T11:50:31.740Z,100.00
2023-03-06T11:53:01.488Z,100.00
2023-03-06T11:55:42.955Z,100.00
2023-03-06T11:58:43.482Z,100.00
2023-03-06T12:01:39.638Z,100.00
2023-03-06T12:04:26.197Z,100.00
2023-03-06T12:07:11.437Z,100.00
2023-03-06T12:09:49.877Z,100.00
2023-03-06T12:12:19.384Z,100.00
2023-03-06T12:15:11.481Z,100.00
2023-03-06T12:17:56.085Z,100.00
2023-03-06T12:20:34.709Z,99.57
2023-03-06T12:23:19.631Z,100.00
2023-03-06T12:26:34.124Z,100.00
2023-03-06T12:29:09.954Z,99.80
2023-03-06T12:32:00.211Z,98.18
2023-03-06T12:34:37.819Z,97.92
2023-03-06T12:37:19.581Z,98.84
2023-03-06T12:39:48.397Z,98.93
2023-03-06T12:42:22.884Z,98.74
2023-03-06T12:44:52.750Z,98.19
2023-03-06T12:47:21.388Z,97.66
2023-03-06T12:50:04.537Z,97.66
2023-03-06T12:52:32.710Z,98.62
2023-03-06T12:55:00.319Z,98.71
2023-03-06T12:57:26.921Z,99.23
2023-03-06T12:59:54.655Z,98.22
2023-03-06T13:02:43.729Z,97.99
2023-03-06T13:05:33.956Z,97.47
2023-03-06T13:08:09.903Z,98.29
2023-03-06T13:10:38.531Z,98.17
2023-03-06T13:13:34.530Z,98.88
2023-03-06T13:16:04.008Z,99.52
2023-03-06T13:18:47.543Z,99.37
2023-03-06T13:21:43.320Z,100.00
2023-03-06T13:24:32.908Z,100.00
2023-03-06T13:27:10.909Z,100.00
2023-03-06T13:29:37.389Z,100.00
2023-03-06T13:32:03.791Z,100.00
2023-03-06T13:34:48.399Z,100.00
2023-03-06T13:37:17.614Z,100.00
2023-03-06T13:39:59.072Z,100.00
2023-03-06T13:42:29.293Z,100.00
2023-03-06T13:44:57.582Z,100.00
2023-03-06T13:47:39.771Z,100.00
2023-03-06T13:50:41.850Z,100.00
2023-03-06T13:53:29.644Z,100.00
2023-03-06T13:55:58.647Z,100.00
2023-03-06T13:58:28.153Z,100.00
2023-03-06T14:01:17.034Z,100.00
2023-03-06T14:03:54.997Z,100.00
2023-03-06T14:06:42.208Z,100.00
2023-03-06T14:09:19.081Z,100.00
2023-03-06T14:11:50.900Z,100.00
2023-03-06T14:14:17.632Z,100.00
2023-03-06T14:16:50.537Z,100.00
2023-03-06T14:19:18.070Z,100.00
2023-03-06T14:21:50.087Z,99.71
2023-03-06T14:24:20.866Z,99.23
2023-03-06T14:26:51.163Z,99.09
2023-03-06T14:29:23.058Z,98.82
2023-03-06T14:31:51.379Z,98.46
2023-03-06T14:34:20.316Z,99.29
2023-03-06T14:36:51.461Z,98.29
2023-03-06T14:39:20.789Z,97.80
2023-03-06T14:41:47.365Z,97.57
2023-03-06T14:44:22.269Z,98.36
2023-03-06T14:46:51.470Z,97.29
2023-03-06T14:49:19.996Z,97.48
2023-03-06T14:51:49.229Z,95.62
2023-03-06T14:54:19.475Z,93.72
2023-03-06T14:56:49.793Z,94.56
2023-03-06T14:59:25.081Z,94.07
2023-03-06T15:01:56.185Z,93.58
2023-03-06T15:04:25.407Z,93.54
2023-03-06T15:06:52.771Z,92.40
2023-03-06T15:09:27.103Z,93.27
2023-03-06T15:11:56.564Z,91.58
2023-03-06T15:14:42.047Z,91.86
2023-03-06T15:17:15.931Z,90.85
2023-03-06T15:19:42.605Z,91.25
2023-03-06T15:22:30.945Z,91.62
2023-03-06T15:25:09.943Z,91.22
2023-03-06T15:27:36.399Z,90.78
2023-03-06T15:30:21.851Z,90.29
2023-03-06T15:32:48.275Z,92.23
2023-03-06T15:35:31.871Z,91.76
2023-03-06T15:37:59.205Z,91.00
2023-03-06T15:40:28.587Z,90.27
2023-03-06T15:42:55.434Z,90.58
2023-03-06T15:45:23.981Z,90.21
2023-03-06T15:47:51.944Z,90.21
2023-03-06T15:50:18.326Z,89.40
2023-03-06T15:52:45.511Z,89.31
2023-03-06T15:55:13.397Z,88.77
2023-03-06T15:57:56.785Z,90.24
2023-03-06T16:00:28.616Z,87.48
2023-03-06T16:02:56.783Z,89.02
2023-03-06T16:05:23.865Z,89.14
2023-03-06T16:07:50.475Z,88.44
2023-03-06T16:10:20.060Z,88.19
2023-03-06T16:12:49.449Z,88.68
2023-03-06T16:15:17.858Z,88.42
2023-03-06T16:17:44.318Z,88.67
2023-03-06T16:20:15.250Z,88.67
2023-03-06T16:22:41.677Z,89.53
2023-03-06T16:25:08.795Z,88.87
2023-03-06T16:27:35.238Z,90.23
2023-03-06T16:30:01.981Z,90.00
2023-03-06T16:32:28.903Z,90.58
2023-03-06T16:34:55.375Z,91.75
2023-03-06T16:37:21.836Z,92.05
2023-03-06T16:39:48.333Z,92.92
2023-03-06T16:42:16.910Z,93.70
2023-03-06T16:44:43.353Z,94.80
2023-03-06T16:47:11.864Z,94.13
2023-03-06T16:49:38.374Z,94.65
2023-03-06T16:52:05.012Z,94.34
2023-03-06T16:54:31.504Z,94.04
2023-03-06T16:56:58.068Z,94.70
2023-03-06T16:59:25.214Z,95.10
2023-03-06T17:01:51.910Z,96.24
2023-03-06T17:04:18.374Z,96.15
2023-03-06T17:06:44.925Z,95.16
2023-03-06T17:09:11.532Z,95.95
2023-03-06T17:11:43.281Z,95.80
2023-03-06T17:14:09.716Z,96.72
2023-03-06T17:16:40.176Z,96.26
2023-03-06T17:19:07.173Z,97.15
2023-03-06T17:21:35.359Z,97.11
2023-03-06T17:24:03.745Z,97.77
2023-03-06T17:26:30.580Z,98.01
2023-03-06T17:28:57.132Z,98.11
2023-03-06T17:31:26.658Z,97.72
2023-03-06T17:33:57.145Z,98.03
2023-03-06T17:36:23.697Z,97.72
2023-03-06T17:38:50.226Z,97.34
2023-03-06T17:41:16.726Z,98.42
2023-03-06T17:43:46.129Z,97.63
2023-03-06T17:46:13.459Z,98.10
2023-03-06T17:48:40.325Z,97.80
2023-03-06T17:51:07.489Z,97.46
2023-03-06T17:53:33.969Z,98.76
2023-03-06T17:56:03.142Z,98.35
2023-03-06T17:58:31.115Z,97.83
2023-03-06T18:00:57.793Z,97.74
2023-03-06T18:03:24.259Z,97.59
2023-03-06T18:06:00.486Z,98.04
2023-03-06T18:08:26.911Z,97.92
2023-03-06T18:10:59.397Z,98.47
2023-03-06T18:13:25.894Z,97.95
2023-03-06T18:15:52.351Z,98.03
2023-03-06T18:18:18.813Z,97.42
2023-03-06T18:20:47.192Z,97.51
2023-03-06T18:23:13.907Z,97.48
2023-03-06T18:25:40.356Z,97.53
2023-03-06T18:28:07.108Z,97.72
2023-03-06T18:30:43.399Z,97.09
2023-03-06T18:33:10.413Z,97.64
2023-03-06T18:35:36.914Z,98.40
2023-03-06T18:38:03.505Z,98.33
2023-03-06T18:40:30.205Z,97.54
2023-03-06T18:42:56.673Z,98.35
2023-03-06T18:45:23.274Z,98.38
2023-03-06T18:47:49.797Z,98.08
2023-03-06T18:50:17.625Z,98.16
2023-03-06T18:52:44.484Z,98.21
2023-03-06T18:55:11.235Z,98.85
2023-03-06T18:57:38.169Z,97.79
2023-03-06T19:00:06.440Z,97.59
2023-03-06T19:02:32.928Z,98.29
2023-03-06T19:04:59.450Z,98.44
2023-03-06T19:07:25.883Z,98.50
2023-03-06T19:09:52.418Z,99.18
2023-03-06T19:12:18.863Z,98.68
2023-03-06T19:14:45.344Z,98.86
2023-03-06T19:17:12.127Z,99.24
2023-03-06T19:19:38.599Z,99.38
2023-03-06T19:22:05.078Z,98.30
2023-03-06T19:24:31.575Z,98.63
2023-03-06T19:26:58.036Z,98.56
2023-03-06T19:29:24.510Z,99.03
2023-03-06T19:31:52.374Z,98.89
2023-03-06T19:34:18.871Z,99.05
2023-03-06T19:36:45.341Z,98.76
2023-03-06T19:39:11.902Z,99.07
2023-03-06T19:41:38.413Z,97.98
2023-03-06T19:44:05.925Z,98.78
2023-03-06T19:46:32.877Z,98.43
2023-03-06T19:49:01.492Z,98.36
2023-03-06T19:51:28.349Z,97.59
2023-03-06T19:53:56.108Z,97.43
2023-03-06T19:56:26.023Z,97.67
2023-03-06T19:58:52.791Z,98.24
2023-03-06T20:01:20.392Z,98.02
2023-03-06T20:03:46.935Z,96.75
2023-03-06T20:06:15.681Z,97.64
2023-03-06T20:08:43.257Z,97.37
2023-03-06T20:11:21.120Z,97.13
2023-03-06T20:13:48.434Z,97.35
2023-03-06T20:16:16.130Z,98.10
2023-03-06T20:18:42.986Z,98.23
2023-03-06T20:21:09.773Z,98.22
2023-03-06T20:23:36.346Z,98.24
2023-03-06T20:26:09.443Z,98.29
2023-03-06T20:28:36.675Z,97.95
2023-03-06T20:31:11.195Z,99.36
2023-03-06T20:33:37.675Z,98.46
2023-03-06T20:36:04.569Z,98.48
2023-03-06T20:38:31.049Z,99.40
2023-03-06T20:40:58.798Z,99.80
2023-03-06T20:43:25.217Z,99.70
2023-03-06T20:45:59.941Z,98.25
2023-03-06T20:48:26.424Z,98.71
2023-03-06T20:51:03.961Z,99.12
2023-03-06T20:53:30.957Z,99.32
2023-03-06T20:55:57.619Z,99.04
2023-03-06T20:58:32.671Z,98.47
2023-03-06T21:01:01.383Z,98.84
2023-03-06T21:03:29.204Z,98.78
2023-03-06T21:05:55.977Z,98.61
2023-03-06T21:08:22.418Z,98.56
2023-03-06T21:10:49.217Z,98.69
2023-03-06T21:13:15.649Z,98.54
2023-03-06T21:15:43.095Z,99.16
2023-03-06T21:18:12.082Z,98.32
2023-03-06T21:20:39.765Z,99.06
2023-03-06T21:23:06.982Z,98.55
2023-03-06T21:25:36.640Z,98.34
2023-03-06T21:28:03.141Z,98.40
2023-03-06T21:30:30.195Z,98.68
2023-03-06T21:32:56.686Z,98.93
2023-03-06T21:35:23.151Z,98.36
2023-03-06T21:37:49.648Z,98.39
2023-03-06T21:40:16.389Z,98.92
2023-03-06T21:42:42.848Z,98.84
2023-03-06T21:45:09.682Z,98.66
2023-03-06T21:47:41.128Z,98.80
2023-03-06T21:50:09.771Z,99.27
2023-03-06T21:52:36.244Z,99.02
2023-03-06T21:55:03.014Z,98.20
2023-03-06T21:57:29.894Z,98.78
2023-03-06T21:59:56.348Z,98.29
2023-03-06T22:02:25.632Z,97.84
2023-03-06T22:04:52.789Z,97.07
2023-03-06T22:07:19.911Z,97.64
2023-03-06T22:09:46.569Z,97.74
2023-03-06T22:12:13.062Z,97.86
2023-03-06T22:14:39.669Z,96.83
2023-03-06T22:17:06.507Z,96.64
2023-03-06T22:19:32.966Z,96.85
2023-03-06T22:21:59.440Z,97.25
2023-03-06T22:24:28.572Z,97.51
2023-03-06T22:26:55.056Z,97.30
2023-03-06T22:29:21.473Z,98.29
2023-03-06T22:31:47.971Z,97.37
2023-03-06T22:34:18.124Z,97.87
2023-03-06T22:36:46.122Z,96.92
2023-03-06T22:39:13.224Z,97.96
2023-03-06T22:41:40.048Z,97.59
2023-03-06T22:44:10.458Z,98.91
2023-03-06T22:46:37.033Z,98.43
2023-03-06T22:49:03.719Z,98.82
2023-03-06T22:51:30.243Z,98.10
2023-03-06T22:53:56.887Z,98.63
2023-03-06T22:56:25.883Z,99.23
2023-03-06T22:58:52.354Z,98.92
2023-03-06T23:01:21.083Z,99.64
2023-03-06T23:03:50.052Z,99.57
2023-03-06T23:06:22.728Z,100.00
2023-03-06T23:08:54.274Z,100.00
2023-03-06T23:11:21.534Z,100.00
2023-03-06T23:13:48.040Z,100.00
2023-03-06T23:16:14.648Z,100.00
2023-03-06T23:18:41.287Z,100.00
2023-03-06T23:21:13.565Z,100.00
2023-03-06T23:23:40.569Z,100.00
2023-03-06T23:26:07.852Z,100.00
2023-03-06T23:28:35.002Z,100.00
2023-03-06T23:31:07.231Z,100.00
2023-03-06T23:33:33.991Z,100.00
2023-03-06T23:36:07.847Z,100.00
2023-03-06T23:38:34.721Z,100.00
2023-03-06T23:41:05.108Z,100.00
2023-03-06T23:43:31.918Z,100.00
2023-03-06T23:45:58.679Z,100.00
2023-03-06T23:48:25.293Z,100.00
2023-03-06T23:50:51.764Z,100.00
2023-03-06T23:53:18.413Z,100.00
2023-03-06T23:55:47.045Z,100.00
2023-03-06T23:58:14.305Z,100.00
